createdAt,value
2022-12-23T00:01:33.076Z,99606.78
2022-12-23T00:04:01.024Z,99599.03
2022-12-23T00:06:28.527Z,99604.22
2022-12-23T00:08:59.285Z,99594.72
2022-12-23T00:11:28.481Z,99595.56
2022-12-23T00:14:20.642Z,99596.44
2022-12-23T00:16:50.953Z,99593.81
2022-12-23T00:19:18.505Z,99582.59
2022-12-23T00:21:45.952Z,99578.28
2022-12-23T00:24:13.244Z,99580.84
2022-12-23T00:26:48.883Z,99567.84
2022-12-23T00:29:16.398Z,99568.72
2022-12-23T00:31:43.589Z,99560.09
2022-12-23T00:34:13.253Z,99560.09
2022-12-23T00:36:41.037Z,99567.91
2022-12-23T00:39:45.197Z,99559.25
2022-12-23T00:42:30.885Z,99556.66
2022-12-23T00:45:16.095Z,99552.34
2022-12-23T00:48:03.926Z,99550.66
2022-12-23T00:50:36.315Z,99555.84
2022-12-23T00:53:10.080Z,99551.56
2022-12-23T00:55:37.482Z,99548.97
2022-12-23T00:58:04.674Z,99542.91
2022-12-23T01:00:50.724Z,99543.78
2022-12-23T01:03:36.894Z,99549.84
2022-12-23T01:06:04.314Z,99548.13
2022-12-23T01:08:31.611Z,99549.88
2022-12-23T01:14:25.922Z,99539.47
2022-12-23T01:16:53.838Z,99542.03
2022-12-23T01:19:21.467Z,99536.00
2022-12-23T01:21:49.152Z,99537.72
2022-12-23T01:24:17.174Z,99533.38
2022-12-23T01:26:44.995Z,99534.22
2022-12-23T01:29:15.387Z,99536.78
2022-12-23T01:31:43.168Z,99533.31
2022-12-23T01:34:10.623Z,99529.84
2022-12-23T01:36:38.434Z,99528.09
2022-12-23T01:39:05.967Z,99534.16
2022-12-23T01:41:53.316Z,99520.31
2022-12-23T01:45:03.653Z,99525.47
2022-12-23T01:47:35.914Z,99522.91
2022-12-23T01:50:12.142Z,99514.25
2022-12-23T01:52:50.626Z,99505.59
2022-12-23T01:55:22.358Z,99503.88
2022-12-23T01:57:50.432Z,99514.28
2022-12-23T02:00:36.324Z,99508.22
2022-12-23T02:03:22.071Z,99506.47
2022-12-23T02:05:50.295Z,99507.34
2022-12-23T02:08:37.193Z,99508.19
2022-12-23T02:12:11.272Z,99505.59
2022-12-23T02:15:36.481Z,99504.66
2022-12-23T02:18:11.188Z,99498.59
2022-12-23T02:20:46.913Z,99497.72
2022-12-23T02:23:16.874Z,99496.00
2022-12-23T02:26:11.524Z,99485.63
2022-12-23T02:28:53.398Z,99487.34
2022-12-23T02:31:29.217Z,99487.34
2022-12-23T02:34:18.136Z,99485.63
2022-12-23T02:36:57.646Z,99482.16
2022-12-23T02:39:35.875Z,99475.25
2022-12-23T02:42:18.522Z,99477.84
2022-12-23T02:45:04.215Z,99469.19
2022-12-23T02:47:42.233Z,99460.50
2022-12-23T02:50:19.664Z,99457.00
2022-12-23T02:52:49.685Z,99455.25
2022-12-23T02:55:29.485Z,99454.34
2022-12-23T02:58:00.812Z,99444.78
2022-12-23T03:00:28.187Z,99447.38
2022-12-23T03:02:55.286Z,99443.03
2022-12-23T03:05:41.595Z,99444.78
2022-12-23T03:08:21.075Z,99432.69
2022-12-23T03:11:14.764Z,99435.28
2022-12-23T03:14:10.335Z,99432.69
2022-12-23T03:17:15.260Z,99437.03
2022-12-23T03:20:19.654Z,99430.97
2022-12-23T03:23:15.926Z,99432.69
2022-12-23T03:26:33.668Z,99437.03
2022-12-23T03:29:13.140Z,99430.16
2022-12-23T03:31:41.587Z,99434.50
2022-12-23T03:34:23.072Z,99437.97
2022-12-23T03:36:54.033Z,99430.19
2022-12-23T03:39:28.381Z,99425.00
2022-12-23T03:42:04.125Z,99426.72
2022-12-23T03:44:40.298Z,99420.69
2022-12-23T03:47:13.778Z,99419.81
2022-12-23T03:49:48.286Z,99416.41
2022-12-23T03:52:50.397Z,99412.06
2022-12-23T03:55:33.089Z,99415.56
2022-12-23T03:58:29.627Z,99416.41
2022-12-23T04:01:06.023Z,99415.59
2022-12-23T04:03:51.048Z,99407.81
2022-12-23T04:06:20.670Z,99400.00
2022-12-23T04:08:49.707Z,99403.47
2022-12-23T04:11:17.304Z,99409.53
2022-12-23T04:13:44.399Z,99398.28
2022-12-23T04:16:11.520Z,99405.22
2022-12-23T04:18:38.567Z,99394.84
2022-12-23T04:21:05.835Z,99387.91
2022-12-23T04:23:32.851Z,99392.25
2022-12-23T04:25:59.919Z,99393.13
2022-12-23T04:28:26.893Z,99389.66
2022-12-23T04:30:53.936Z,99401.75
2022-12-23T04:33:21.389Z,99391.38
2022-12-23T04:35:48.346Z,99404.38
2022-12-23T04:38:15.442Z,99399.19
2022-12-23T04:40:47.984Z,99392.28
2022-12-23T04:43:15.476Z,99393.16
2022-12-23T04:45:42.486Z,99384.53
2022-12-23T04:48:09.579Z,99384.53
2022-12-23T04:50:36.527Z,99387.13
2022-12-23T04:53:03.388Z,99376.75
2022-12-23T04:55:30.285Z,99379.34
2022-12-23T04:57:57.195Z,99385.38
2022-12-23T05:00:24.281Z,99391.44
2022-12-23T05:02:51.290Z,99389.72
2022-12-23T05:05:18.330Z,99383.69
2022-12-23T05:07:45.311Z,99381.94
2022-12-23T05:10:12.216Z,99381.97
2022-12-23T05:12:39.149Z,99384.56
2022-12-23T05:15:07.174Z,99382.81
2022-12-23T05:17:34.443Z,99394.94
2022-12-23T05:20:01.317Z,99390.63
2022-12-23T05:22:28.218Z,99388.88
2022-12-23T05:24:55.124Z,99386.28
2022-12-23T05:27:22.044Z,99379.38
2022-12-23T05:29:48.961Z,99390.66
2022-12-23T05:32:16.827Z,99375.94
2022-12-23T05:34:43.773Z,99380.28
2022-12-23T05:37:10.700Z,99383.75
2022-12-23T05:39:37.735Z,99383.75
2022-12-23T05:42:05.780Z,99388.94
2022-12-23T05:44:33.142Z,99383.78
2022-12-23T05:47:00.356Z,99386.41
2022-12-23T05:49:28.354Z,99389.88
2022-12-23T05:51:55.963Z,99384.69
2022-12-23T05:54:23.543Z,99389.00
2022-12-23T05:56:51.144Z,99387.28
2022-12-23T05:59:19.362Z,99388.16
2022-12-23T06:01:46.942Z,99389.91
2022-12-23T06:04:14.740Z,99389.91
2022-12-23T06:06:51.118Z,99395.13
2022-12-23T06:09:18.370Z,99405.53
2022-12-23T06:11:45.813Z,99394.25
2022-12-23T06:14:13.474Z,99397.75
2022-12-23T06:16:40.768Z,99401.22
2022-12-23T06:19:08.420Z,99410.75
2022-12-23T06:21:35.763Z,99407.28
2022-12-23T06:24:03.530Z,99415.97
2022-12-23T06:26:30.896Z,99424.59
2022-12-23T06:28:58.275Z,99419.41
2022-12-23T06:31:25.612Z,99423.75
2022-12-23T06:33:52.863Z,99430.69
2022-12-23T06:36:20.236Z,99426.34
2022-12-23T06:38:47.669Z,99427.22
2022-12-23T06:41:15.533Z,99428.06
2022-12-23T06:43:42.890Z,99435.88
2022-12-23T06:46:10.178Z,99439.34
2022-12-23T06:48:37.617Z,99448.88
2022-12-23T06:51:05.337Z,99455.81
2022-12-23T06:53:32.529Z,99452.38
2022-12-23T06:56:02.222Z,99456.69
2022-12-23T06:58:29.501Z,99464.50
2022-12-23T07:00:57.137Z,99457.56
2022-12-23T07:03:24.994Z,99475.72
2022-12-23T07:05:52.682Z,99470.53
2022-12-23T07:08:20.653Z,99477.47
2022-12-23T07:10:50.988Z,99479.19
2022-12-23T07:13:18.465Z,99474.00
2022-12-23T07:15:46.016Z,99474.88
2022-12-23T07:18:13.123Z,99480.94
2022-12-23T07:20:40.541Z,99477.47
2022-12-23T07:23:08.072Z,99476.59
2022-12-23T07:25:35.207Z,99483.50
2022-12-23T07:28:02.561Z,99477.44
2022-12-23T07:30:29.970Z,99493.91
2022-12-23T07:32:57.134Z,99473.97
2022-12-23T07:35:24.348Z,99486.97
2022-12-23T07:37:54.045Z,99486.97
2022-12-23T07:40:24.589Z,99488.72
2022-12-23T07:42:56.630Z,99491.31
2022-12-23T07:45:27.841Z,99485.25
2022-12-23T07:48:00.969Z,99486.13
2022-12-23T07:50:28.505Z,99507.78
2022-12-23T07:52:56.562Z,99501.72
2022-12-23T07:55:23.885Z,99499.09
2022-12-23T07:57:52.420Z,99498.25
2022-12-23T08:00:21.239Z,99512.09
2022-12-23T08:02:48.594Z,99506.88
2022-12-23T08:05:16.894Z,99511.22
2022-12-23T08:07:45.439Z,99515.56
2022-12-23T08:10:13.194Z,99514.72
2022-12-23T08:12:40.442Z,99516.44
2022-12-23T08:15:09.503Z,99519.88
2022-12-23T08:17:40.164Z,99519.03
2022-12-23T08:20:08.400Z,99528.56
2022-12-23T08:22:35.644Z,99534.66
2022-12-23T08:25:03.259Z,99528.59
2022-12-23T08:27:30.896Z,99527.75
2022-12-23T08:29:58.669Z,99533.81
2022-12-23T08:32:29.477Z,99536.41
2022-12-23T08:35:01.514Z,99527.75
2022-12-23T08:37:28.896Z,99529.47
2022-12-23T08:39:56.400Z,99536.44
2022-12-23T08:42:23.766Z,99532.97
2022-12-23T08:44:51.136Z,99530.41
2022-12-23T08:47:18.703Z,99529.56
2022-12-23T08:49:50.178Z,99538.22
2022-12-23T08:52:17.635Z,99552.97
2022-12-23T08:54:49.224Z,99552.09
2022-12-23T08:57:22.921Z,99552.97
2022-12-23T08:59:52.197Z,99556.44
2022-12-23T09:02:22.393Z,99551.22
2022-12-23T09:04:49.877Z,99560.75
2022-12-23T09:07:17.226Z,99564.22
2022-12-23T09:09:44.736Z,99574.63
2022-12-23T09:12:11.982Z,99571.16
2022-12-23T09:14:47.877Z,99567.66
2022-12-23T09:17:18.020Z,99573.72
2022-12-23T09:19:52.759Z,99572.00
2022-12-23T09:22:26.751Z,99585.88
2022-12-23T09:24:58.660Z,99594.56
2022-12-23T09:27:33.084Z,99594.56
2022-12-23T09:30:04.314Z,99597.16
2022-12-23T09:32:33.279Z,99606.69
2022-12-23T09:35:00.837Z,99598.91
2022-12-23T09:37:28.479Z,99614.50
2022-12-23T09:39:55.953Z,99627.47
2022-12-23T09:43:19.136Z,99632.66
2022-12-23T09:46:27.037Z,99634.34
2022-12-23T09:49:14.355Z,99625.72
2022-12-23T09:51:41.759Z,99640.47
2022-12-23T09:54:29.027Z,99639.63
2022-12-23T09:57:30.206Z,99650.91
2022-12-23T10:00:07.503Z,99647.44
2022-12-23T10:03:26.031Z,99654.38
2022-12-23T10:06:07.827Z,99657.81
2022-12-23T10:08:42.066Z,99662.16
2022-12-23T10:11:24.149Z,99657.84
2022-12-23T10:14:20.568Z,99655.22
2022-12-23T10:17:10.576Z,99651.75
2022-12-23T10:19:46.023Z,99655.22
2022-12-23T10:22:40.403Z,99656.97
2022-12-23T10:25:36.750Z,99662.16
2022-12-23T10:31:39.392Z,99639.66
2022-12-23T10:34:43.165Z,99647.47
2022-12-23T10:37:22.588Z,99644.94
2022-12-23T10:40:25.848Z,99636.31
2022-12-23T10:43:18.142Z,99634.63
2022-12-23T10:46:07.342Z,99632.94
2022-12-23T10:49:18.381Z,99626.00
2022-12-23T10:51:58.847Z,99646.81
2022-12-23T10:54:44.324Z,99650.31
2022-12-23T10:57:16.179Z,99656.38
2022-12-23T10:59:47.318Z,99657.25
2022-12-23T11:02:20.777Z,99645.97
2022-12-23T11:04:53.639Z,99646.84
2022-12-23T11:07:46.378Z,99658.13
2022-12-23T11:10:21.452Z,99650.31
2022-12-23T11:12:53.488Z,99647.72
2022-12-23T11:15:38.540Z,99658.13
2022-12-23T11:18:11.503Z,99661.63
2022-12-23T11:20:42.768Z,99659.00
2022-12-23T11:23:31.913Z,99653.78
2022-12-23T11:26:07.182Z,99657.25
2022-12-23T11:28:48.166Z,99666.78
2022-12-23T11:31:17.161Z,99656.34
2022-12-23T11:33:59.073Z,99652.88
2022-12-23T11:36:32.533Z,99661.56
2022-12-23T11:39:28.997Z,99661.53
2022-12-23T11:42:26.999Z,99666.72
2022-12-23T11:44:58.421Z,99670.16
2022-12-23T11:47:44.488Z,99664.97
2022-12-23T11:50:30.745Z,99679.69
2022-12-23T11:53:23.685Z,99681.44
2022-12-23T11:56:05.876Z,99691.00
2022-12-23T11:59:26.327Z,99687.50
2022-12-23T12:01:58.439Z,99690.97
2022-12-23T12:04:29.336Z,99697.03
2022-12-23T12:06:57.077Z,99703.09
2022-12-23T12:09:25.888Z,99704.81
2022-12-23T12:12:21.447Z,99709.13
2022-12-23T12:15:46.045Z,99710.88
2022-12-23T12:18:26.633Z,99715.19
2022-12-23T12:21:02.624Z,99710.88
2022-12-23T12:24:29.755Z,99706.53
2022-12-23T12:27:11.817Z,99704.78
2022-12-23T12:33:57.121Z,99696.13
2022-12-23T12:37:23.826Z,99704.84
2022-12-23T12:40:08.146Z,99691.00
2022-12-23T12:42:58.650Z,99697.97
2022-12-23T12:45:45.301Z,99696.25
2022-12-23T12:52:32.586Z,99684.13
2022-12-23T12:55:18.407Z,99684.06
2022-12-23T12:57:46.441Z,99680.56
2022-12-23T13:01:42.903Z,99682.31
2022-12-23T13:04:40.249Z,99679.69
2022-12-23T13:07:46.246Z,99690.06
2022-12-23T13:10:49.200Z,99697.00
2022-12-23T13:14:18.098Z,99686.59
2022-12-23T13:17:20.649Z,99688.34
2022-12-23T13:20:30.446Z,99690.06
2022-12-23T13:23:44.069Z,99671.00
2022-12-23T13:26:58.344Z,99670.09
2022-12-23T13:30:12.264Z,99672.72
2022-12-23T13:32:43.935Z,99665.81
2022-12-23T13:39:36.810Z,99647.59
2022-12-23T13:42:12.048Z,99651.91
2022-12-23T13:44:45.753Z,99648.47
2022-12-23T13:47:46.134Z,99649.31
2022-12-23T13:50:43.470Z,99650.16
2022-12-23T13:54:04.152Z,99651.06
2022-12-23T13:56:51.103Z,99663.19
2022-12-23T13:59:19.469Z,99646.72
2022-12-23T14:01:59.278Z,99658.00
2022-12-23T14:05:16.627Z,99653.66
2022-12-23T14:07:54.942Z,99661.47
2022-12-23T14:10:32.627Z,99656.25
2022-12-23T14:13:14.984Z,99648.47
2022-12-23T14:15:56.979Z,99656.25
2022-12-23T14:18:46.602Z,99664.06
2022-12-23T14:21:45.251Z,99662.31
2022-12-23T14:25:00.745Z,99659.72
2022-12-23T14:28:46.970Z,99670.13
2022-12-23T14:32:06.475Z,99671.00
2022-12-23T14:34:38.308Z,99668.38
2022-12-23T14:37:24.540Z,99664.94
2022-12-23T14:39:59.682Z,99664.91
2022-12-23T14:42:49.046Z,99666.63
2022-12-23T14:45:35.712Z,99663.16
2022-12-23T14:48:34.418Z,99671.81
2022-12-23T14:51:34.194Z,99672.63
2022-12-23T14:54:14.710Z,99673.50
2022-12-23T14:56:58.520Z,99676.09
2022-12-23T15:00:03.128Z,99681.28
2022-12-23T15:02:43.024Z,99689.09
2022-12-23T15:05:17.097Z,99683.00
2022-12-23T15:07:47.845Z,99683.88
2022-12-23T15:10:25.853Z,99681.25
2022-12-23T15:13:03.205Z,99681.25
2022-12-23T15:15:31.651Z,99682.09
2022-12-23T15:18:12.024Z,99683.81
2022-12-23T15:20:41.088Z,99674.28
2022-12-23T15:23:17.206Z,99675.13
2022-12-23T15:25:48.262Z,99674.22
2022-12-23T15:28:25.190Z,99662.06
2022-12-23T15:31:00.889Z,99673.28
2022-12-23T15:34:02.247Z,99678.44
2022-12-23T15:36:43.693Z,99668.88
2022-12-23T15:39:28.288Z,99669.69
2022-12-23T15:42:05.008Z,99670.50
2022-12-23T15:44:39.388Z,99673.91
2022-12-23T15:47:30.912Z,99665.25
2022-12-23T15:50:03.034Z,99658.28
2022-12-23T15:52:31.819Z,99651.31
2022-12-23T15:55:11.696Z,99653.91
2022-12-23T15:57:50.025Z,99659.94
2022-12-23T16:00:39.399Z,99668.56
2022-12-23T16:03:23.216Z,99665.03
2022-12-23T16:05:54.204Z,99676.28
2022-12-23T16:08:30.203Z,99681.44
2022-12-23T16:11:20.633Z,99692.69
2022-12-23T16:14:02.745Z,99688.38
2022-12-23T16:16:43.329Z,99683.19
2022-12-23T16:19:43.100Z,99680.63
2022-12-23T16:22:37.827Z,99689.34
2022-12-23T16:25:34.055Z,99692.84
2022-12-23T16:28:21.978Z,99695.50
2022-12-23T16:31:29.934Z,99689.47
2022-12-23T16:34:19.757Z,99687.75
2022-12-23T16:36:50.479Z,99685.22
2022-12-23T16:39:23.580Z,99679.16
2022-12-23T16:41:51.678Z,99673.13
2022-12-23T16:44:20.194Z,99670.53
2022-12-23T16:46:52.332Z,99678.31
2022-12-23T16:49:31.202Z,99674.03
2022-12-23T16:52:06.266Z,99668.84
2022-12-23T16:54:34.026Z,99670.59
2022-12-23T16:57:02.376Z,99655.03
2022-12-23T16:59:30.171Z,99660.22
2022-12-23T17:02:03.818Z,99650.72
2022-12-23T17:04:31.845Z,99644.66
2022-12-23T17:06:59.450Z,99641.19
2022-12-23T17:09:30.020Z,99644.66
2022-12-23T17:11:57.582Z,99633.41
2022-12-23T17:14:26.384Z,99633.41
2022-12-23T17:16:54.088Z,99632.53
2022-12-23T17:19:27.649Z,99635.13
2022-12-23T17:22:03.470Z,99634.25
2022-12-23T17:24:31.321Z,99629.91
2022-12-23T17:26:58.615Z,99624.72
2022-12-23T17:29:26.393Z,99616.91
2022-12-23T17:31:54.312Z,99628.19
2022-12-23T17:34:24.615Z,99617.78
2022-12-23T17:36:53.412Z,99613.44
2022-12-23T17:39:25.124Z,99610.00
2022-12-23T17:41:59.047Z,99612.56
2022-12-23T17:44:29.627Z,99609.97
2022-12-23T17:46:59.181Z,99600.44
2022-12-23T17:49:26.083Z,99594.38
2022-12-23T17:51:54.216Z,99596.09
2022-12-23T17:54:26.647Z,99590.91
2022-12-23T17:57:01.361Z,99590.88
2022-12-23T17:59:58.669Z,99592.56
2022-12-23T18:02:36.902Z,99582.13
2022-12-23T18:06:13.199Z,99578.63
2022-12-23T18:08:48.378Z,99584.69
2022-12-23T18:11:42.898Z,99583.81
2022-12-23T18:14:39.764Z,99585.53
2022-12-23T18:17:14.664Z,99590.75
2022-12-23T18:19:46.529Z,99583.81
2022-12-23T18:22:22.339Z,99580.34
2022-12-23T18:24:57.017Z,99576.00
2022-12-23T18:27:35.753Z,99570.84
2022-12-23T18:30:03.123Z,99573.41
2022-12-23T18:32:33.153Z,99570.81
2022-12-23T18:35:01.011Z,99571.69
2022-12-23T18:37:28.895Z,99575.19
2022-12-23T18:40:07.996Z,99578.66
2022-12-23T18:42:41.909Z,99577.78
2022-12-23T18:45:42.080Z,99577.78
2022-12-23T18:48:10.308Z,99584.75
2022-12-23T18:50:40.522Z,99576.94
2022-12-23T18:53:23.102Z,99580.41
2022-12-23T18:55:52.661Z,99580.38
2022-12-23T18:58:20.817Z,99581.22
2022-12-23T19:00:50.115Z,99572.53
2022-12-23T19:03:33.383Z,99574.25
2022-12-23T19:06:11.356Z,99568.19
2022-12-23T19:08:39.084Z,99571.63
2022-12-23T19:11:18.902Z,99573.34
2022-12-23T19:13:46.573Z,99574.19
2022-12-23T19:16:17.408Z,99565.53
2022-12-23T19:18:45.904Z,99559.47
2022-12-23T19:21:13.334Z,99553.41
2022-12-23T19:23:41.429Z,99555.97
2022-12-23T19:26:14.103Z,99557.69
2022-12-23T19:28:41.974Z,99556.81
2022-12-23T19:31:14.625Z,99560.28
2022-12-23T19:33:44.589Z,99561.06
2022-12-23T19:36:19.562Z,99558.47
2022-12-23T19:38:48.403Z,99556.72
2022-12-23T19:41:15.402Z,99559.28
2022-12-23T19:43:45.280Z,99556.63
2022-12-23T19:46:14.097Z,99551.44
2022-12-23T19:48:41.627Z,99556.63
2022-12-23T19:51:11.292Z,99556.63
2022-12-23T19:53:40.671Z,99554.91
2022-12-23T19:56:14.164Z,99552.31
2022-12-23T19:58:44.077Z,99557.50
2022-12-23T20:01:25.107Z,99543.66
2022-12-23T20:03:54.559Z,99546.28
2022-12-23T20:06:26.735Z,99545.41
2022-12-23T20:09:00.128Z,99544.50
2022-12-23T20:11:30.649Z,99532.38
2022-12-23T20:13:58.429Z,99534.94
2022-12-23T20:16:26.534Z,99533.16
2022-12-23T20:18:53.982Z,99528.84
2022-12-23T20:21:21.621Z,99524.50
2022-12-23T20:23:49.775Z,99524.47
2022-12-23T20:26:18.846Z,99519.25
2022-12-23T20:28:46.640Z,99520.94
2022-12-23T20:31:19.106Z,99512.28
2022-12-23T20:33:48.427Z,99501.03
2022-12-23T20:36:18.088Z,99502.69
2022-12-23T20:38:46.984Z,99501.78
2022-12-23T20:41:18.073Z,99495.75
2022-12-23T20:43:56.934Z,99498.34
2022-12-23T20:46:32.625Z,99492.25
2022-12-23T20:48:59.687Z,99494.81
2022-12-23T20:51:26.790Z,99502.59
2022-12-23T20:53:59.827Z,99498.25
2022-12-23T20:56:29.373Z,99503.44
2022-12-23T20:59:00.248Z,99503.47
2022-12-23T21:01:35.795Z,99506.09
2022-12-23T21:04:10.248Z,99499.19
2022-12-23T21:06:37.833Z,99506.09
2022-12-23T21:09:07.174Z,99506.97
2022-12-23T21:11:39.590Z,99498.31
2022-12-23T21:14:07.806Z,99510.41
2022-12-23T21:16:37.341Z,99505.25
2022-12-23T21:19:06.751Z,99510.41
2022-12-23T21:21:34.028Z,99495.69
2022-12-23T21:24:04.281Z,99508.66
2022-12-23T21:26:33.416Z,99512.06
2022-12-23T21:29:03.789Z,99511.19
2022-12-23T21:31:33.491Z,99511.16
2022-12-23T21:34:01.067Z,99506.00
2022-12-23T21:36:36.689Z,99499.94
2022-12-23T21:39:05.599Z,99493.84
2022-12-23T21:41:37.204Z,99491.22
2022-12-23T21:44:05.286Z,99498.13
2022-12-23T21:46:32.483Z,99490.31
2022-12-23T21:48:59.921Z,99496.44
2022-12-23T21:51:40.219Z,99501.59
2022-12-23T21:54:09.617Z,99492.03
2022-12-23T21:56:37.191Z,99483.38
2022-12-23T21:59:08.126Z,99487.69
2022-12-23T22:01:35.802Z,99486.78
2022-12-23T22:04:03.443Z,99480.75
2022-12-23T22:06:36.023Z,99487.63
2022-12-23T22:09:04.917Z,99490.22
2022-12-23T22:11:35.227Z,99479.81
2022-12-23T22:14:05.177Z,99478.06
2022-12-23T22:16:35.868Z,99474.56
2022-12-23T22:19:04.967Z,99469.38
2022-12-23T22:21:35.794Z,99473.63
2022-12-23T22:24:03.628Z,99460.63
2022-12-23T22:26:33.269Z,99464.06
2022-12-23T22:29:03.778Z,99471.81
2022-12-23T22:31:33.382Z,99469.22
2022-12-23T22:34:00.601Z,99475.19
2022-12-23T22:36:28.582Z,99463.06
2022-12-23T22:38:59.258Z,99471.69
2022-12-23T22:41:28.383Z,99473.44
2022-12-23T22:43:57.161Z,99471.69
2022-12-23T22:46:25.186Z,99470.81
2022-12-23T22:48:53.324Z,99487.19
2022-12-23T22:51:27.564Z,99469.06
2022-12-23T22:53:55.837Z,99468.22
2022-12-23T22:56:24.588Z,99463.91
2022-12-23T22:58:53.781Z,99471.69
2022-12-23T23:01:28.526Z,99465.66
2022-12-23T23:03:57.893Z,99469.13
2022-12-23T23:06:37.577Z,99464.81
2022-12-23T23:09:07.788Z,99465.66
2022-12-23T23:11:34.996Z,99467.38
2022-12-23T23:14:02.000Z,99461.34
2022-12-23T23:16:29.011Z,99452.72
2022-12-23T23:18:56.621Z,99467.41
2022-12-23T23:21:23.602Z,99468.28
2022-12-23T23:23:50.883Z,99457.06
2022-12-23T23:26:19.531Z,99471.69
2022-12-23T23:28:46.816Z,99469.97
2022-12-23T23:34:00.978Z,99474.31
2022-12-23T23:36:27.967Z,99466.56
2022-12-23T23:38:54.955Z,99465.72
2022-12-23T23:41:23.654Z,99476.03
2022-12-23T23:43:51.969Z,99482.91
2022-12-23T23:46:19.110Z,99482.88
2022-12-23T23:48:46.139Z,99482.03
2022-12-23T23:51:13.092Z,99491.50
2022-12-23T23:53:40.606Z,99488.91
2022-12-23T23:56:08.667Z,99489.72
2022-12-23T23:58:37.360Z,99489.75
